Time;durP1;ratioP1;P1;durP2;ratioP2;P2;SDS_P1;SDS_P2;PMS_P1;PMS_P2;Temp;Humidity;BMP_temperature;BMP_pressure;BME280_temperature;BME280_humidity;BME280_pressure;Samples;Min_cycle;Max_cycle;Signal;HPM_P1;HPM_P2
2021/06/27 00:02:07;;;;;;;6.53;3.50;;;;;;;;;;5091984;28;20031;-65
2021/06/27 00:04:33;;;;;;;12.88;4.30;;;;;;;;;;5090873;28;20031;-65
2021/06/27 00:07:00;;;;;;;8.23;4.00;;;;;;;;;;5082667;28;20064;-68
2021/06/27 00:09:28;;;;;;;7.88;4.57;;;;;;;;;;5091024;28;20028;-71
2021/06/27 00:11:54;;;;;;;6.57;4.20;;;;;;;;;;5091695;28;20032;-71
2021/06/27 00:14:20;;;;;;;8.10;4.28;;;;;;;;;;5091033;28;20032;-70
2021/06/27 00:16:47;;;;;;;5.68;3.45;;;;;;;;;;5091714;28;20082;-71
2021/06/27 00:19:14;;;;;;;6.57;3.70;;;;;;;;;;5091543;28;20036;-65
2021/06/27 00:21:40;;;;;;;5.25;3.63;;;;;;;;;;5091514;28;20024;-65
2021/06/27 00:24:06;;;;;;;5.88;3.45;;;;;;;;;;5090996;28;20020;-64
2021/06/27 00:26:32;;;;;;;8.40;3.88;;;;;;;;;;5091132;28;20059;-65
2021/06/27 00:28:58;;;;;;;11.23;4.05;;;;;;;;;;5091133;28;20482;-68
2021/06/27 00:31:24;;;;;;;10.13;3.97;;;;;;;;;;5086367;28;20055;-65
2021/06/27 00:33:50;;;;;;;13.55;4.15;;;;;;;;;;5087232;28;20065;-62
2021/06/27 00:36:17;;;;;;;11.50;3.97;;;;;;;;;;5091619;28;20036;-69
2021/06/27 00:38:43;;;;;;;51.22;6.03;;;;;;;;;;5091514;28;20021;-70
2021/06/27 00:41:09;;;;;;;31.00;6.25;;;;;;;;;;5091392;28;20066;-70
2021/06/27 00:43:35;;;;;;;12.20;4.40;;;;;;;;;;5090518;28;20051;-68
2021/06/27 00:46:01;;;;;;;6.78;3.53;;;;;;;;;;5091627;28;20091;-68
2021/06/27 00:48:28;;;;;;;6.95;4.00;;;;;;;;;;5090837;28;20070;-68
2021/06/27 00:50:55;;;;;;;5.97;4.13;;;;;;;;;;5090481;28;20031;-67
2021/06/27 00:53:22;;;;;;;9.88;3.90;;;;;;;;;;5089785;28;20046;-69
2021/06/27 00:55:58;;;;;;;5.95;4.15;;;;;;;;;;5084073;28;20107;-70
2021/06/27 00:58:34;;;;;;;5.28;3.75;;;;;;;;;;5087259;28;20046;-65
2021/06/27 01:01:01;;;;;;;4.47;3.65;;;;;;;;;;5094746;28;20046;-65
2021/06/27 01:03:27;;;;;;;5.22;3.83;;;;;;;;;;5094400;28;20024;-69
2021/06/27 01:05:54;;;;;;;5.90;3.70;;;;;;;;;;5094127;28;20040;-64
2021/06/27 01:08:20;;;;;;;9.93;3.97;;;;;;;;;;5095175;28;20089;-67
2021/06/27 01:10:47;;;;;;;8.70;4.40;;;;;;;;;;5094627;28;20028;-70
2021/06/27 01:13:14;;;;;;;6.50;3.80;;;;;;;;;;5095139;28;20035;-70
2021/06/27 01:15:40;;;;;;;10.18;3.90;;;;;;;;;;5092578;28;20559;-65
2021/06/27 01:18:06;;;;;;;49.22;6.30;;;;;;;;;;5087487;28;20036;-71
2021/06/27 01:20:34;;;;;;;29.05;5.28;;;;;;;;;;5094841;28;20070;-65
2021/06/27 01:23:01;;;;;;;12.80;4.40;;;;;;;;;;5094196;28;20500;-64
2021/06/27 01:25:29;;;;;;;9.15;4.45;;;;;;;;;;5088483;28;20077;-68
2021/06/27 01:27:56;;;;;;;6.25;4.30;;;;;;;;;;5093899;28;20020;-69
2021/06/27 01:30:23;;;;;;;9.10;4.00;;;;;;;;;;5094398;28;20132;-68
2021/06/27 01:32:50;;;;;;;6.50;4.07;;;;;;;;;;5094346;28;20020;-70
2021/06/27 01:35:19;;;;;;;5.85;3.88;;;;;;;;;;5084533;28;20486;-68
2021/06/27 01:37:45;;;;;;;5.78;4.20;;;;;;;;;;5093006;28;20379;-65
2021/06/27 01:40:12;;;;;;;10.93;4.20;;;;;;;;;;5093760;28;20028;-70
2021/06/27 01:42:38;;;;;;;8.00;4.05;;;;;;;;;;5094394;28;20119;-70
2021/06/27 01:45:14;;;;;;;7.03;4.57;;;;;;;;;;5093950;28;20028;-70
2021/06/27 01:47:40;;;;;;;4.97;4.22;;;;;;;;;;5093592;28;20489;-65
2021/06/27 01:50:07;;;;;;;5.88;4.30;;;;;;;;;;5083020;28;20035;-68
2021/06/27 01:52:33;;;;;;;4.88;4.10;;;;;;;;;;5093311;28;20043;-65
2021/06/27 01:54:59;;;;;;;6.10;4.13;;;;;;;;;;5093939;28;20032;-70
2021/06/27 01:57:25;;;;;;;6.18;4.13;;;;;;;;;;5092920;28;20036;-69
2021/06/27 01:59:51;;;;;;;5.72;4.47;;;;;;;;;;5084789;28;20024;-65
2021/06/27 02:02:18;;;;;;;6.40;4.35;;;;;;;;;;5093109;28;20139;-69
2021/06/27 02:04:46;;;;;;;5.70;4.30;;;;;;;;;;5098645;28;20028;-70
2021/06/27 02:07:12;;;;;;;5.47;4.03;;;;;;;;;;5092356;28;20051;-65
2021/06/27 02:09:40;;;;;;;8.48;4.40;;;;;;;;;;5092677;28;20089;-65
2021/06/27 02:12:08;;;;;;;8.98;4.38;;;;;;;;;;5093265;28;20042;-71
2021/06/27 02:14:34;;;;;;;6.22;4.30;;;;;;;;;;5093078;28;20020;-67
2021/06/27 02:17:01;;;;;;;6.60;4.10;;;;;;;;;;5093289;28;20036;-68
2021/06/27 02:19:27;;;;;;;4.88;4.15;;;;;;;;;;5087010;28;20107;-69
2021/06/27 02:21:53;;;;;;;8.25;4.80;;;;;;;;;;5094488;28;20093;-65
2021/06/27 02:24:19;;;;;;;16.80;4.93;;;;;;;;;;5091210;28;20024;-65
2021/06/27 02:26:45;;;;;;;12.38;4.50;;;;;;;;;;5093084;28;20060;-64
2021/06/27 02:29:11;;;;;;;12.05;4.90;;;;;;;;;;5092562;28;20073;-65
2021/06/27 02:31:37;;;;;;;11.75;4.25;;;;;;;;;;5094414;28;20035;-65
2021/06/27 02:34:03;;;;;;;6.63;3.92;;;;;;;;;;5091901;28;20028;-65
2021/06/27 02:36:29;;;;;;;7.15;4.60;;;;;;;;;;5079375;28;20040;-71
2021/06/27 02:38:55;;;;;;;11.13;4.47;;;;;;;;;;5092644;28;20367;-65
2021/06/27 02:41:21;;;;;;;8.65;4.47;;;;;;;;;;5093224;28;20020;-71
2021/06/27 02:43:50;;;;;;;5.50;4.03;;;;;;;;;;5092752;28;20020;-70
2021/06/27 02:46:16;;;;;;;6.93;4.32;;;;;;;;;;5098738;28;20023;-70
2021/06/27 02:48:42;;;;;;;7.35;4.35;;;;;;;;;;5091909;28;20521;-70
2021/06/27 02:51:08;;;;;;;5.03;4.30;;;;;;;;;;5092638;28;20452;-70
2021/06/27 02:53:34;;;;;;;6.68;3.97;;;;;;;;;;5092311;28;20024;-65
2021/06/27 02:56:07;;;;;;;5.28;4.18;;;;;;;;;;5098983;28;20032;-66
2021/06/27 02:58:36;;;;;;;6.25;4.13;;;;;;;;;;5090493;28;20080;-69
2021/06/27 03:01:03;;;;;;;5.22;4.40;;;;;;;;;;5091400;28;20016;-67
2021/06/27 03:03:29;;;;;;;6.03;4.25;;;;;;;;;;5090903;28;20039;-70
2021/06/27 03:05:55;;;;;;;6.45;4.40;;;;;;;;;;5092030;28;20478;-70
2021/06/27 03:08:21;;;;;;;5.53;4.40;;;;;;;;;;5090852;28;20119;-70
2021/06/27 03:10:47;;;;;;;6.13;4.78;;;;;;;;;;5091015;28;20043;-71
2021/06/27 03:13:13;;;;;;;6.18;4.10;;;;;;;;;;5091492;28;20032;-66
2021/06/27 03:15:39;;;;;;;5.47;4.18;;;;;;;;;;5089028;28;20032;-68
2021/06/27 03:18:05;;;;;;;5.68;4.10;;;;;;;;;;5091258;28;20497;-70
2021/06/27 03:20:33;;;;;;;5.80;4.30;;;;;;;;;;5090807;28;20028;-69
2021/06/27 03:22:59;;;;;;;8.40;4.55;;;;;;;;;;5089069;28;20057;-70
2021/06/27 03:25:26;;;;;;;6.53;4.50;;;;;;;;;;5087437;28;20024;-69
2021/06/27 03:27:54;;;;;;;9.25;4.43;;;;;;;;;;5089444;28;20023;-68
2021/06/27 03:30:20;;;;;;;6.30;4.40;;;;;;;;;;5090783;28;20032;-68
2021/06/27 03:32:48;;;;;;;6.55;3.92;;;;;;;;;;5088932;28;20031;-69
2021/06/27 03:35:14;;;;;;;6.85;4.07;;;;;;;;;;5090906;28;20020;-68
2021/06/27 03:37:57;;;;;;;5.95;3.90;;;;;;;;;;5090596;28;20067;-69
2021/06/27 03:40:24;;;;;;;6.70;4.30;;;;;;;;;;5091332;28;20467;-63
2021/06/27 03:42:50;;;;;;;7.20;4.68;;;;;;;;;;5090636;28;20043;-68
2021/06/27 03:45:17;;;;;;;9.80;4.60;;;;;;;;;;5091163;28;20020;-63
2021/06/27 03:47:44;;;;;;;8.75;4.82;;;;;;;;;;5091676;28;20040;-65
2021/06/27 03:50:10;;;;;;;6.65;4.63;;;;;;;;;;5090189;28;20024;-64
2021/06/27 03:52:36;;;;;;;9.25;4.80;;;;;;;;;;5090351;28;20362;-65
2021/06/27 03:55:04;;;;;;;7.43;4.70;;;;;;;;;;5091082;28;20020;-70
2021/06/27 03:57:30;;;;;;;6.50;4.38;;;;;;;;;;5089566;28;20055;-65
2021/06/27 03:59:56;;;;;;;8.18;5.45;;;;;;;;;;5090008;28;20074;-69
2021/06/27 04:02:22;;;;;;;8.15;4.75;;;;;;;;;;5089299;28;20027;-70
2021/06/27 04:04:48;;;;;;;7.25;5.10;;;;;;;;;;5089794;28;20028;-70
2021/06/27 04:07:14;;;;;;;9.48;4.25;;;;;;;;;;5092091;28;20055;-65
2021/06/27 04:09:40;;;;;;;5.55;4.55;;;;;;;;;;5092718;28;20020;-69
2021/06/27 04:12:07;;;;;;;7.18;4.72;;;;;;;;;;5096613;28;20023;-70
2021/06/27 04:14:33;;;;;;;5.55;4.45;;;;;;;;;;5091074;28;20028;-64
2021/06/27 04:16:59;;;;;;;5.13;4.30;;;;;;;;;;5088527;28;20412;-65
2021/06/27 04:19:25;;;;;;;8.80;4.72;;;;;;;;;;5091712;28;20024;-65
2021/06/27 04:21:53;;;;;;;6.07;4.30;;;;;;;;;;5091468;28;20082;-69
2021/06/27 04:24:19;;;;;;;6.78;4.40;;;;;;;;;;5090517;28;20081;-65
2021/06/27 04:26:45;;;;;;;7.05;4.68;;;;;;;;;;5091729;28;20032;-65
2021/06/27 04:29:13;;;;;;;5.40;4.40;;;;;;;;;;5091660;28;20499;-65
2021/06/27 04:31:40;;;;;;;6.80;5.00;;;;;;;;;;5084151;28;20032;-69
2021/06/27 04:34:06;;;;;;;8.32;4.68;;;;;;;;;;5086717;28;20024;-70
2021/06/27 04:36:32;;;;;;;6.90;4.57;;;;;;;;;;5076578;28;20024;-68
2021/06/27 04:38:58;;;;;;;5.10;4.40;;;;;;;;;;5078026;28;20024;-67
2021/06/27 04:41:24;;;;;;;6.10;4.50;;;;;;;;;;5083362;28;20046;-69
2021/06/27 04:43:50;;;;;;;8.40;3.97;;;;;;;;;;5082247;28;20474;-70
2021/06/27 04:46:17;;;;;;;5.38;4.38;;;;;;;;;;5091496;28;20495;-68
2021/06/27 04:48:44;;;;;;;6.55;4.38;;;;;;;;;;5095054;28;20032;-68
2021/06/27 04:51:10;;;;;;;8.52;4.70;;;;;;;;;;5090719;28;20031;-65
2021/06/27 04:53:36;;;;;;;7.43;4.90;;;;;;;;;;5092328;28;20039;-66
2021/06/27 04:56:02;;;;;;;8.73;4.57;;;;;;;;;;5095231;28;20028;-68
2021/06/27 04:58:28;;;;;;;10.90;5.18;;;;;;;;;;5092119;28;20157;-66
2021/06/27 05:00:54;;;;;;;6.47;4.63;;;;;;;;;;5093612;28;20020;-79
2021/06/27 05:03:20;;;;;;;10.45;5.00;;;;;;;;;;5075496;28;20040;-81
2021/06/27 05:05:47;;;;;;;9.82;5.20;;;;;;;;;;5073972;28;20044;-83
2021/06/27 05:08:13;;;;;;;10.00;5.13;;;;;;;;;;5106467;28;20536;-79
2021/06/27 05:10:39;;;;;;;6.82;5.00;;;;;;;;;;5092896;28;20020;-81
2021/06/27 05:13:05;;;;;;;6.80;4.63;;;;;;;;;;5096502;28;20473;-83
2021/06/27 05:15:31;;;;;;;8.27;4.72;;;;;;;;;;5078384;28;20040;-67
2021/06/27 05:17:57;;;;;;;6.82;4.82;;;;;;;;;;5101078;28;20043;-64
2021/06/27 05:20:23;;;;;;;5.68;4.70;;;;;;;;;;5093391;28;20028;-65
2021/06/27 05:22:49;;;;;;;10.02;5.18;;;;;;;;;;5074219;28;20074;-64
2021/06/27 05:25:15;;;;;;;6.78;5.38;;;;;;;;;;5098770;28;20028;-63
2021/06/27 05:27:42;;;;;;;11.07;5.25;;;;;;;;;;5099078;28;20067;-64
2021/06/27 05:30:09;;;;;;;14.05;5.82;;;;;;;;;;5096132;28;20039;-64
2021/06/27 05:32:35;;;;;;;11.60;5.88;;;;;;;;;;5098194;28;20020;-62
2021/06/27 05:35:01;;;;;;;7.68;5.45;;;;;;;;;;5095400;28;20031;-62
2021/06/27 05:37:27;;;;;;;12.23;6.25;;;;;;;;;;5089529;28;20036;-63
2021/06/27 05:39:53;;;;;;;13.10;5.30;;;;;;;;;;5093213;28;20023;-63
2021/06/27 05:42:20;;;;;;;13.80;6.15;;;;;;;;;;5095161;28;20112;-67
2021/06/27 05:44:46;;;;;;;9.70;5.22;;;;;;;;;;5097477;28;20022;-72
2021/06/27 05:47:12;;;;;;;13.55;5.97;;;;;;;;;;5093077;28;20591;-68
2021/06/27 05:49:38;;;;;;;7.72;4.97;;;;;;;;;;5095083;28;20393;-66
2021/06/27 05:52:04;;;;;;;10.93;5.10;;;;;;;;;;5093049;28;20099;-68
2021/06/27 05:54:30;;;;;;;10.73;5.20;;;;;;;;;;5092091;28;20012;-66
2021/06/27 05:56:56;;;;;;;11.10;5.18;;;;;;;;;;5100363;28;20035;-68
2021/06/27 05:59:23;;;;;;;7.40;4.22;;;;;;;;;;5093698;28;20127;-70
2021/06/27 06:01:49;;;;;;;14.88;4.60;;;;;;;;;;5092547;28;20380;-68
2021/06/27 06:04:15;;;;;;;9.75;4.85;;;;;;;;;;5091997;28;20076;-64
2021/06/27 06:06:41;;;;;;;9.18;4.80;;;;;;;;;;5080313;28;20048;-64
2021/06/27 06:09:07;;;;;;;10.95;4.78;;;;;;;;;;5069150;28;20095;-68
2021/06/27 06:11:33;;;;;;;6.43;4.78;;;;;;;;;;5076580;28;20466;-70
2021/06/27 06:13:59;;;;;;;8.90;4.60;;;;;;;;;;5074983;28;20053;-71
2021/06/27 06:16:25;;;;;;;9.43;4.88;;;;;;;;;;5071658;28;20036;-68
2021/06/27 06:18:51;;;;;;;9.50;4.03;;;;;;;;;;5076977;28;20500;-80
2021/06/27 06:21:17;;;;;;;7.50;4.28;;;;;;;;;;5077314;28;20023;-82
2021/06/27 06:23:43;;;;;;;6.30;3.90;;;;;;;;;;5077059;28;20298;-88
2021/06/27 06:26:10;;;;;;;6.47;3.88;;;;;;;;;;5058887;28;20115;-82
2021/06/27 06:28:38;;;;;;;6.47;3.85;;;;;;;;;;5072125;28;20438;-84
2021/06/27 06:31:04;;;;;;;6.57;3.50;;;;;;;;;;5065372;28;20016;-67
2021/06/27 06:33:31;;;;;;;6.70;4.25;;;;;;;;;;5067482;28;20135;-79
2021/06/27 06:35:57;;;;;;;6.57;3.90;;;;;;;;;;5058481;28;20045;-69
2021/06/27 06:38:23;;;;;;;21.40;4.47;;;;;;;;;;5065085;28;20083;-68
2021/06/27 06:40:49;;;;;;;9.63;3.95;;;;;;;;;;5075631;28;20493;-69
2021/06/27 06:43:15;;;;;;;5.05;3.92;;;;;;;;;;5072961;28;20032;-73
2021/06/27 06:45:41;;;;;;;6.28;4.10;;;;;;;;;;5074844;28;20032;-71
2021/06/27 06:48:07;;;;;;;9.45;4.20;;;;;;;;;;5071194;28;20028;-75
2021/06/27 06:50:33;;;;;;;12.27;4.60;;;;;;;;;;5075217;28;20020;-68
2021/06/27 06:53:00;;;;;;;9.57;4.30;;;;;;;;;;5078272;28;20099;-70
2021/06/27 06:55:29;;;;;;;9.38;4.13;;;;;;;;;;5076754;28;20366;-68
2021/06/27 06:57:55;;;;;;;9.98;4.20;;;;;;;;;;5072688;28;20037;-63
2021/06/27 07:00:21;;;;;;;7.88;4.05;;;;;;;;;;5075138;28;20048;-65
2021/06/27 07:02:47;;;;;;;6.50;4.30;;;;;;;;;;5071939;28;20073;-62
2021/06/27 07:05:13;;;;;;;11.27;4.22;;;;;;;;;;5073379;28;20027;-66
2021/06/27 07:07:45;;;;;;;6.88;3.92;;;;;;;;;;5073258;28;20068;-72
2021/06/27 07:10:11;;;;;;;7.80;4.10;;;;;;;;;;5068059;28;20032;-66
2021/06/27 07:12:37;;;;;;;7.47;4.30;;;;;;;;;;5057519;28;20041;-72
2021/06/27 07:15:07;;;;;;;5.47;4.03;;;;;;;;;;5078836;28;20107;-71
2021/06/27 07:17:33;;;;;;;11.65;4.30;;;;;;;;;;5078928;28;20501;-71
2021/06/27 07:19:59;;;;;;;6.65;4.28;;;;;;;;;;5073064;28;20466;-68
2021/06/27 07:22:25;;;;;;;10.68;5.15;;;;;;;;;;5065203;28;20383;-65
2021/06/27 07:24:51;;;;;;;13.15;4.63;;;;;;;;;;5071920;28;20040;-72
2021/06/27 07:27:17;;;;;;;9.77;4.20;;;;;;;;;;5074582;28;20374;-70
2021/06/27 07:29:43;;;;;;;11.98;4.40;;;;;;;;;;5068819;28;20032;-72
2021/06/27 07:32:09;;;;;;;9.40;4.20;;;;;;;;;;5071729;28;20505;-79
2021/06/27 07:34:35;;;;;;;8.07;4.15;;;;;;;;;;5080606;28;20024;-75
2021/06/27 07:37:03;;;;;;;11.68;4.18;;;;;;;;;;5073286;28;20484;-75
2021/06/27 07:39:29;;;;;;;8.20;3.70;;;;;;;;;;5076249;28;20081;-78
2021/06/27 07:41:55;;;;;;;16.85;4.30;;;;;;;;;;5071821;28;20054;-77
2021/06/27 07:44:21;;;;;;;6.55;4.15;;;;;;;;;;5060342;28;20028;-81
2021/06/27 07:46:47;;;;;;;4.55;3.97;;;;;;;;;;5071653;28;20095;-74
2021/06/27 07:49:13;;;;;;;4.90;3.90;;;;;;;;;;5074002;28;20387;-66
2021/06/27 07:51:39;;;;;;;7.32;3.80;;;;;;;;;;5076459;28;20407;-74
2021/06/27 07:54:06;;;;;;;9.65;3.67;;;;;;;;;;5078485;28;20017;-72
2021/06/27 07:56:32;;;;;;;7.13;4.03;;;;;;;;;;5071738;28;20551;-68
2021/06/27 07:58:58;;;;;;;8.80;4.00;;;;;;;;;;5060202;28;20116;-70
2021/06/27 08:01:24;;;;;;;7.40;3.47;;;;;;;;;;5061788;28;20047;-72
2021/06/27 08:03:51;;;;;;;7.07;3.67;;;;;;;;;;5060510;28;20035;-71
2021/06/27 08:06:17;;;;;;;5.65;3.85;;;;;;;;;;5069445;28;20041;-71
2021/06/27 08:08:43;;;;;;;5.65;3.70;;;;;;;;;;5072296;28;20078;-67
2021/06/27 08:11:10;;;;;;;4.38;3.30;;;;;;;;;;5075926;28;20016;-67
2021/06/27 08:13:36;;;;;;;8.48;3.70;;;;;;;;;;5076724;28;20436;-65
2021/06/27 08:16:02;;;;;;;3.83;3.20;;;;;;;;;;5076568;28;20024;-70
2021/06/27 08:18:28;;;;;;;6.38;3.45;;;;;;;;;;5078618;28;20123;-69
2021/06/27 08:20:54;;;;;;;5.65;3.13;;;;;;;;;;5080205;28;20031;-68
2021/06/27 08:23:20;;;;;;;4.32;3.22;;;;;;;;;;5080617;28;20035;-71
2021/06/27 08:25:46;;;;;;;4.55;3.42;;;;;;;;;;5074121;28;20028;-65
2021/06/27 08:28:12;;;;;;;6.07;3.33;;;;;;;;;;5079972;28;20028;-71
2021/06/27 08:30:38;;;;;;;6.75;3.30;;;;;;;;;;5078885;28;20173;-71
2021/06/27 08:33:05;;;;;;;8.90;3.20;;;;;;;;;;5081927;28;20032;-71
2021/06/27 08:35:31;;;;;;;3.22;2.92;;;;;;;;;;5089231;28;20028;-70
2021/06/27 08:37:57;;;;;;;5.93;3.35;;;;;;;;;;5089747;28;20120;-65
2021/06/27 08:40:24;;;;;;;6.85;3.10;;;;;;;;;;5091201;28;20031;-64
2021/06/27 08:42:50;;;;;;;11.77;3.05;;;;;;;;;;5090276;28;20020;-65
2021/06/27 08:45:16;;;;;;;4.57;3.00;;;;;;;;;;5085657;28;20028;-72
2021/06/27 08:47:43;;;;;;;6.97;3.08;;;;;;;;;;5088503;28;20039;-70
2021/06/27 08:50:11;;;;;;;4.95;2.90;;;;;;;;;;5089883;28;20028;-71
2021/06/27 08:52:37;;;;;;;7.97;3.33;;;;;;;;;;5090018;28;20107;-74
2021/06/27 08:55:04;;;;;;;5.45;2.95;;;;;;;;;;5089777;28;20023;-71
2021/06/27 08:57:30;;;;;;;4.95;2.47;;;;;;;;;;5085027;28;20032;-73
2021/06/27 09:00:00;;;;;;;4.43;3.00;;;;;;;;;;5089726;28;20020;-71
2021/06/27 09:02:26;;;;;;;4.22;2.72;;;;;;;;;;5089751;28;20043;-75
2021/06/27 09:04:53;;;;;;;5.78;2.72;;;;;;;;;;5088926;28;20164;-69
2021/06/27 09:07:28;;;;;;;7.78;2.70;;;;;;;;;;5068279;28;20110;-71
2021/06/27 09:09:55;;;;;;;7.75;2.88;;;;;;;;;;5071069;28;20024;-72
2021/06/27 09:12:21;;;;;;;4.25;2.95;;;;;;;;;;5068777;28;20116;-70
2021/06/27 09:14:47;;;;;;;8.32;2.92;;;;;;;;;;5075680;28;20033;-70
2021/06/27 09:17:24;;;;;;;4.90;2.88;;;;;;;;;;5077992;28;20025;-68
2021/06/27 09:19:53;;;;;;;4.85;3.10;;;;;;;;;;5058811;28;20029;-65
2021/06/27 09:22:20;;;;;;;8.13;3.78;;;;;;;;;;5063292;28;20060;-68
2021/06/27 09:24:47;;;;;;;5.05;3.00;;;;;;;;;;5070110;28;20045;-72
2021/06/27 09:27:17;;;;;;;4.65;3.03;;;;;;;;;;5077357;28;20048;-71
2021/06/27 09:29:43;;;;;;;3.75;2.80;;;;;;;;;;5078151;28;20020;-72
2021/06/27 09:32:19;;;;;;;4.15;2.75;;;;;;;;;;5071867;28;20025;-72
2021/06/27 09:34:45;;;;;;;4.95;2.80;;;;;;;;;;5072111;28;20021;-72
2021/06/27 09:37:40;;;;;;;7.85;2.72;;;;;;;;;;5073118;28;20033;-71
2021/06/27 09:40:11;;;;;;;5.97;2.72;;;;;;;;;;5054773;28;20029;-75
2021/06/27 09:42:37;;;;;;;4.88;3.05;;;;;;;;;;5083166;28;20409;-65
2021/06/27 09:45:05;;;;;;;3.45;2.80;;;;;;;;;;5071291;28;20452;-72
2021/06/27 09:47:32;;;;;;;4.05;2.60;;;;;;;;;;5077833;28;20086;-71
2021/06/27 09:50:02;;;;;;;4.57;2.83;;;;;;;;;;5071190;28;20052;-71
2021/06/27 09:52:41;;;;;;;3.22;2.58;;;;;;;;;;5051998;28;20503;-67
2021/06/27 09:55:08;;;;;;;4.60;2.95;;;;;;;;;;5069118;28;20025;-69
2021/06/27 09:57:35;;;;;;;8.70;2.58;;;;;;;;;;5061231;28;20094;-65
2021/06/27 10:00:01;;;;;;;4.30;2.40;;;;;;;;;;5061178;28;20385;-72
2021/06/27 10:02:27;;;;;;;6.50;2.55;;;;;;;;;;5064353;28;20025;-66
2021/06/27 10:04:53;;;;;;;6.32;3.10;;;;;;;;;;5065265;28;20013;-72
2021/06/27 10:07:20;;;;;;;6.53;2.80;;;;;;;;;;5087455;28;20067;-68
2021/06/27 10:09:46;;;;;;;3.40;2.60;;;;;;;;;;5098611;28;20013;-66
2021/06/27 10:12:13;;;;;;;4.45;2.40;;;;;;;;;;5091710;28;20111;-70
2021/06/27 10:15:03;;;;;;;4.78;2.50;;;;;;;;;;5093287;28;20470;-69
2021/06/27 10:17:29;;;;;;;3.58;2.90;;;;;;;;;;5089554;28;20059;-73
2021/06/27 10:19:55;;;;;;;4.55;2.75;;;;;;;;;;5090741;28;20410;-70
2021/06/27 10:22:23;;;;;;;5.43;3.00;;;;;;;;;;5095960;28;20028;-66
2021/06/27 10:24:49;;;;;;;6.95;3.17;;;;;;;;;;5088327;28;20066;-66
2021/06/27 10:27:16;;;;;;;5.10;3.10;;;;;;;;;;5090179;28;20031;-68
2021/06/27 10:29:47;;;;;;;6.88;3.05;;;;;;;;;;5091723;28;20028;-70
2021/06/27 10:32:15;;;;;;;3.53;2.70;;;;;;;;;;5085881;28;20586;-69
2021/06/27 10:34:41;;;;;;;5.15;3.10;;;;;;;;;;5093592;28;20020;-66
2021/06/27 10:37:07;;;;;;;8.35;3.80;;;;;;;;;;5098914;28;20185;-69
2021/06/27 10:39:33;;;;;;;3.88;3.10;;;;;;;;;;5091465;28;20046;-65
2021/06/27 10:42:01;;;;;;;4.13;2.97;;;;;;;;;;5098231;28;20059;-68
2021/06/27 10:44:33;;;;;;;6.65;3.10;;;;;;;;;;5097481;28;20027;-67
2021/06/27 10:47:00;;;;;;;12.45;3.50;;;;;;;;;;5089702;28;20031;-72
2021/06/27 10:49:32;;;;;;;13.23;3.45;;;;;;;;;;5075705;28;20035;-70
2021/06/27 10:52:06;;;;;;;6.30;3.75;;;;;;;;;;5092833;28;20551;-69
2021/06/27 10:54:33;;;;;;;56.33;12.80;;;;;;;;;;5090697;28;20039;-71
2021/06/27 10:56:59;;;;;;;10.73;3.90;;;;;;;;;;5090670;28;20065;-70
2021/06/27 10:59:53;;;;;;;24.08;7.97;;;;;;;;;;5093417;28;20132;-68
2021/06/27 11:02:42;;;;;;;17.40;4.18;;;;;;;;;;5089558;28;20020;-72
2021/06/27 11:05:27;;;;;;;12.07;3.95;;;;;;;;;;5085796;28;20462;-71
2021/06/27 11:07:54;;;;;;;3.97;3.00;;;;;;;;;;5091309;28;20032;-70
2021/06/27 11:10:21;;;;;;;5.72;2.80;;;;;;;;;;5094071;28;20024;-67
2021/06/27 11:15:22;;;;;;;9.73;3.40;;;;;;;;;;5090304;28;20086;-77
2021/06/27 11:17:55;;;;;;;6.20;3.03;;;;;;;;;;5072128;28;20059;-76
2021/06/27 11:20:21;;;;;;;3.97;2.80;;;;;;;;;;5072810;28;20402;-76
2021/06/27 11:22:48;;;;;;;10.18;3.20;;;;;;;;;;5091045;28;20047;-64
2021/06/27 11:25:33;;;;;;;5.75;2.95;;;;;;;;;;5092451;28;20051;-66
2021/06/27 11:27:59;;;;;;;2.97;2.63;;;;;;;;;;5071613;28;20455;-69
2021/06/27 11:30:31;;;;;;;5.57;2.90;;;;;;;;;;5066701;28;20032;-73
2021/06/27 11:33:13;;;;;;;6.78;2.72;;;;;;;;;;5091105;28;20485;-70
2021/06/27 11:35:43;;;;;;;6.30;2.80;;;;;;;;;;5086312;28;20035;-72
2021/06/27 11:38:30;;;;;;;5.85;2.65;;;;;;;;;;5091418;28;20572;-73
2021/06/27 11:40:56;;;;;;;4.72;2.90;;;;;;;;;;5090925;28;20048;-69
2021/06/27 11:43:42;;;;;;;16.05;2.80;;;;;;;;;;5090650;28;20393;-70
2021/06/27 11:46:25;;;;;;;3.53;2.65;;;;;;;;;;5089096;28;20107;-62
2021/06/27 11:48:51;;;;;;;3.10;2.78;;;;;;;;;;5091872;28;20118;-65
2021/06/27 11:51:17;;;;;;;4.90;3.30;;;;;;;;;;5097852;28;20036;-66
2021/06/27 11:53:44;;;;;;;3.92;2.85;;;;;;;;;;5085162;28;20019;-63
2021/06/27 11:56:16;;;;;;;7.32;3.00;;;;;;;;;;5094411;28;20063;-62
2021/06/27 11:58:42;;;;;;;3.60;2.97;;;;;;;;;;5091984;28;20032;-71
2021/06/27 12:01:09;;;;;;;6.20;2.97;;;;;;;;;;5089451;28;20144;-62
2021/06/27 12:03:45;;;;;;;3.85;2.90;;;;;;;;;;5104004;28;20028;-62
2021/06/27 12:06:12;;;;;;;3.65;2.75;;;;;;;;;;5095470;28;20047;-62
2021/06/27 12:08:42;;;;;;;4.70;2.70;;;;;;;;;;5093400;28;20032;-65
2021/06/27 12:11:08;;;;;;;4.15;2.80;;;;;;;;;;5090833;28;20099;-62
2021/06/27 12:13:35;;;;;;;4.32;2.70;;;;;;;;;;5085551;28;20043;-65
2021/06/27 12:16:01;;;;;;;7.25;3.00;;;;;;;;;;5091645;28;20028;-62
2021/06/27 12:18:31;;;;;;;5.85;2.92;;;;;;;;;;5090405;28;20118;-70
2021/06/27 12:21:08;;;;;;;5.25;2.80;;;;;;;;;;5093682;28;20571;-77
2021/06/27 12:23:34;;;;;;;5.55;2.67;;;;;;;;;;5090654;28;20033;-73
2021/06/27 12:26:01;;;;;;;7.40;3.20;;;;;;;;;;5088886;28;20099;-65
2021/06/27 12:28:35;;;;;;;3.08;2.58;;;;;;;;;;5090473;28;20034;-64
2021/06/27 12:31:17;;;;;;;4.32;2.70;;;;;;;;;;5090556;28;20081;-70
2021/06/27 12:33:46;;;;;;;7.32;3.15;;;;;;;;;;5088575;28;20379;-70
2021/06/27 12:36:13;;;;;;;5.07;3.17;;;;;;;;;;5090430;28;20043;-64
2021/06/27 12:38:41;;;;;;;7.28;3.40;;;;;;;;;;5091923;28;20020;-65
2021/06/27 12:41:10;;;;;;;9.00;3.28;;;;;;;;;;5094491;28;20025;-65
2021/06/27 12:43:38;;;;;;;185.25;14.45;;;;;;;;;;5090131;28;20032;-64
2021/06/27 12:46:14;;;;;;;6.45;2.80;;;;;;;;;;5091001;28;20581;-63
2021/06/27 12:48:42;;;;;;;4.25;2.80;;;;;;;;;;5092893;28;20497;-69
2021/06/27 12:51:20;;;;;;;9.38;3.08;;;;;;;;;;5090910;28;20095;-62
2021/06/27 12:53:56;;;;;;;5.28;2.80;;;;;;;;;;5096841;28;20035;-63
2021/06/27 12:56:22;;;;;;;32.08;4.00;;;;;;;;;;5097473;28;20037;-64
2021/06/27 12:58:56;;;;;;;4.45;2.33;;;;;;;;;;5095243;28;20481;-62
2021/06/27 13:01:22;;;;;;;5.35;2.90;;;;;;;;;;5098955;28;20025;-68
2021/06/27 13:03:55;;;;;;;6.47;4.93;;;;;;;;;;5094788;28;20030;-68
2021/06/27 13:06:21;;;;;;;;;;;;;;;;;;5060684;28;20371;-66
2021/06/27 13:08:47;;;;;;;4.65;2.50;;;;;;;;;;5074452;28;20002;-63
2021/06/27 13:11:14;;;;;;;4.20;2.58;;;;;;;;;;5074781;28;20024;-62
2021/06/27 13:13:40;;;;;;;3.40;2.60;;;;;;;;;;5074765;28;20470;-69
2021/06/27 13:16:13;;;;;;;4.47;2.75;;;;;;;;;;5073507;28;20028;-66
2021/06/27 13:18:40;;;;;;;4.13;2.78;;;;;;;;;;5075189;28;20074;-66
2021/06/27 13:21:17;;;;;;;6.25;3.10;;;;;;;;;;5074149;28;20021;-66
2021/06/27 13:23:44;;;;;;;9.43;3.08;;;;;;;;;;5074996;28;20023;-69
2021/06/27 13:26:11;;;;;;;5.20;2.70;;;;;;;;;;5074258;28;20016;-65
2021/06/27 13:28:44;;;;;;;6.20;2.67;;;;;;;;;;5073898;28;20504;-65
2021/06/27 13:31:11;;;;;;;4.75;2.80;;;;;;;;;;5073954;28;20028;-65
2021/06/27 13:33:39;;;;;;;8.13;3.35;;;;;;;;;;5073364;28;20035;-66
2021/06/27 13:36:07;;;;;;;4.50;2.83;;;;;;;;;;5074544;28;20013;-66
2021/06/27 13:38:34;;;;;;;5.50;2.47;;;;;;;;;;5074410;28;20033;-68
2021/06/27 13:41:01;;;;;;;4.55;2.72;;;;;;;;;;5072509;28;20042;-67
2021/06/27 13:43:28;;;;;;;3.80;2.33;;;;;;;;;;5071409;28;20119;-68
2021/06/27 13:45:54;;;;;;;2.72;2.30;;;;;;;;;;5072898;28;20359;-69
2021/06/27 13:48:21;;;;;;;3.80;2.58;;;;;;;;;;5067730;28;20126;-68
2021/06/27 13:50:47;;;;;;;4.47;2.50;;;;;;;;;;5053220;28;20020;-68
2021/06/27 13:53:14;;;;;;;4.50;2.35;;;;;;;;;;5072005;28;20027;-69
2021/06/27 13:55:40;;;;;;;6.80;2.40;;;;;;;;;;5074078;28;20190;-71
2021/06/27 13:58:06;;;;;;;4.88;2.70;;;;;;;;;;5073075;28;20029;-68
2021/06/27 14:00:32;;;;;;;3.95;2.70;;;;;;;;;;5071420;28;20032;-71
2021/06/27 14:02:59;;;;;;;5.63;3.13;;;;;;;;;;5073563;28;20028;-68
2021/06/27 14:05:25;;;;;;;3.90;2.30;;;;;;;;;;5073420;28;20059;-70
2021/06/27 14:07:52;;;;;;;3.58;2.55;;;;;;;;;;5081770;28;20042;-68
2021/06/27 14:10:19;;;;;;;7.45;3.00;;;;;;;;;;5093940;28;20057;-65
2021/06/27 14:12:45;;;;;;;5.90;2.50;;;;;;;;;;5093414;28;20046;-64
2021/06/27 14:15:12;;;;;;;6.28;2.40;;;;;;;;;;5093423;28;20028;-70
2021/06/27 14:17:39;;;;;;;7.30;2.80;;;;;;;;;;5093692;28;20039;-71
2021/06/27 14:20:06;;;;;;;3.38;2.47;;;;;;;;;;5093324;28;20099;-71
2021/06/27 14:22:32;;;;;;;6.63;2.63;;;;;;;;;;5093520;28;20032;-72
2021/06/27 14:24:58;;;;;;;4.10;2.35;;;;;;;;;;5093294;28;20044;-71
2021/06/27 14:27:25;;;;;;;5.10;2.22;;;;;;;;;;5091173;28;20396;-65
2021/06/27 14:29:51;;;;;;;3.70;2.50;;;;;;;;;;5093123;28;20043;-71
2021/06/27 14:32:17;;;;;;;6.22;2.47;;;;;;;;;;5093517;28;20052;-70
2021/06/27 14:34:43;;;;;;;3.90;2.42;;;;;;;;;;5089760;28;20827;-70
2021/06/27 14:37:10;;;;;;;2.65;2.45;;;;;;;;;;5090141;28;20484;-70
2021/06/27 14:39:36;;;;;;;4.63;2.25;;;;;;;;;;5074550;28;20389;-71
2021/06/27 14:42:02;;;;;;;3.50;2.38;;;;;;;;;;5093699;28;20028;-72
2021/06/27 14:44:28;;;;;;;2.97;2.30;;;;;;;;;;5091902;28;20024;-65
2021/06/27 14:46:54;;;;;;;3.53;2.28;;;;;;;;;;5088237;28;20592;-66